Time;durP1;ratioP1;P1;durP2;ratioP2;P2;SDS_P1;SDS_P2;PMS_P1;PMS_P2;Temp;Humidity;BMP_temperature;BMP_pressure;BME280_temperature;BME280_humidity;BME280_pressure;Samples;Min_cycle;Max_cycle;Signal;HPM_P1;HPM_P2
2021/01/25 00:01:47;;;;;;;13.25;5.57;;;0.00;99.90;;;;;;4920408;29;20154;-86
2021/01/25 00:04:13;;;;;;;12.27;5.25;;;-0.10;99.90;;;;;;4931044;29;20054;-87
2021/01/25 00:06:39;;;;;;;13.32;6.00;;;0.00;99.90;;;;;;4932391;29;20122;-86
2021/01/25 00:09:05;;;;;;;16.58;5.15;;;0.00;99.90;;;;;;4932641;29;20036;-87
2021/01/25 00:11:31;;;;;;;10.60;6.50;;;0.00;99.90;;;;;;4930996;29;20111;-87
2021/01/25 00:13:57;;;;;;;11.48;6.13;;;0.00;99.90;;;;;;4931385;29;20040;-85
2021/01/25 00:16:23;;;;;;;11.52;5.68;;;0.10;99.90;;;;;;4930665;29;20059;-85
2021/01/25 00:18:49;;;;;;;10.50;5.90;;;0.00;99.90;;;;;;4930945;29;20039;-86
2021/01/25 00:21:15;;;;;;;15.10;7.38;;;-0.10;99.90;;;;;;4914797;29;20391;-86
2021/01/25 00:23:40;;;;;;;10.88;6.78;;;0.00;99.90;;;;;;4931371;29;20449;-86
2021/01/25 00:26:06;;;;;;;13.52;6.55;;;0.00;99.90;;;;;;4931338;29;20043;-86
2021/01/25 00:28:32;;;;;;;13.63;6.78;;;0.00;99.90;;;;;;4930400;29;20067;-86
2021/01/25 00:30:58;;;;;;;15.15;7.95;;;-0.10;99.90;;;;;;4931801;29;20048;-87
2021/01/25 00:33:24;;;;;;;17.60;7.93;;;0.00;99.90;;;;;;4914614;29;20508;-86
2021/01/25 00:35:50;;;;;;;18.65;7.70;;;-0.10;99.90;;;;;;4932349;29;20430;-87
2021/01/25 00:38:16;;;;;;;12.45;6.07;;;-0.20;99.90;;;;;;4945509;29;20040;-87
2021/01/25 00:40:42;;;;;;;18.65;8.30;;;-0.10;99.90;;;;;;4915696;29;20776;-87
2021/01/25 00:43:08;;;;;;;17.02;8.23;;;-0.20;99.90;;;;;;4930829;29;20060;-86
2021/01/25 00:45:34;;;;;;;14.27;8.38;;;-0.30;99.90;;;;;;4931784;29;20784;-86
2021/01/25 00:48:00;;;;;;;26.17;9.13;;;-0.30;99.90;;;;;;4930536;29;20134;-86
2021/01/25 00:50:26;;;;;;;21.58;9.07;;;-0.20;99.90;;;;;;4930459;29;20442;-87
2021/01/25 00:52:52;;;;;;;19.45;10.10;;;-0.30;99.90;;;;;;4930806;29;20099;-87
2021/01/25 00:55:17;;;;;;;19.77;10.02;;;-0.30;99.90;;;;;;4909864;29;20048;-87
2021/01/25 00:57:44;;;;;;;19.98;9.70;;;-0.20;99.90;;;;;;4938268;29;20048;-87
2021/01/25 01:00:11;;;;;;;17.45;8.82;;;-0.20;99.90;;;;;;4930619;29;20047;-87
2021/01/25 01:02:37;;;;;;;19.05;8.13;;;-0.30;99.90;;;;;;4928872;29;20099;-87
2021/01/25 01:05:05;;;;;;;16.02;8.88;;;-0.30;99.90;;;;;;4927006;29;20134;-88
2021/01/25 01:07:31;;;;;;;22.30;9.77;;;-0.40;99.90;;;;;;4934581;29;20888;-88
2021/01/25 01:09:56;;;;;;;22.35;9.23;;;-0.40;99.90;;;;;;4936145;29;20044;-88
2021/01/25 01:12:22;;;;;;;18.02;8.82;;;-0.30;99.90;;;;;;4934082;29;20048;-86
2021/01/25 01:14:48;;;;;;;18.38;9.20;;;-0.50;99.90;;;;;;4934175;29;20047;-87
2021/01/25 01:17:14;;;;;;;17.13;9.57;;;-0.40;99.90;;;;;;4935967;29;20075;-88
2021/01/25 01:19:40;;;;;;;24.20;10.13;;;-0.40;99.90;;;;;;4934421;29;20405;-86
2021/01/25 01:22:06;;;;;;;19.60;10.50;;;-0.30;99.90;;;;;;4950862;29;20055;-87
2021/01/25 01:24:32;;;;;;;18.17;9.38;;;-0.30;99.90;;;;;;4949561;29;20126;-88
2021/01/25 01:26:58;;;;;;;19.70;9.50;;;-0.40;99.90;;;;;;4950860;29;20047;-88
2021/01/25 01:29:24;;;;;;;20.30;11.20;;;-0.50;99.90;;;;;;4949636;29;20047;-88
2021/01/25 01:31:53;;;;;;;28.50;11.35;;;-0.50;99.90;;;;;;4934199;29;20460;-88
2021/01/25 01:34:18;;;;;;;23.92;10.95;;;-0.50;99.90;;;;;;4934019;29;20159;-87
2021/01/25 01:36:44;;;;;;;26.30;13.07;;;-0.50;99.90;;;;;;4935872;29;20130;-88
2021/01/25 01:39:10;;;;;;;32.03;14.77;;;-0.50;99.90;;;;;;4950402;29;20056;-88
2021/01/25 01:41:37;;;;;;;34.53;12.68;;;-0.50;99.90;;;;;;4934802;29;20567;-88
2021/01/25 01:44:04;;;;;;;22.92;11.88;;;-0.40;99.90;;;;;;4934436;29;20044;-87
2021/01/25 01:46:31;;;;;;;25.70;12.20;;;-0.40;99.90;;;;;;4934536;29;20091;-88
2021/01/25 01:48:59;;;;;;;24.85;11.18;;;-0.40;99.90;;;;;;4935528;29;20047;-88
2021/01/25 01:51:25;;;;;;;24.13;11.52;;;-0.40;99.90;;;;;;4902575;29;20131;-87
2021/01/25 01:53:51;;;;;;;24.85;11.93;;;-0.30;99.90;;;;;;4950040;29;20146;-88
2021/01/25 01:56:16;;;;;;;27.00;12.70;;;-0.30;99.90;;;;;;4918821;29;20475;-88
2021/01/25 01:58:42;;;;;;;28.98;12.80;;;-0.30;99.90;;;;;;4933790;29;20079;-89
2021/01/25 02:01:08;;;;;;;24.90;11.73;;;-0.30;99.90;;;;;;4950941;29;20058;-89
2021/01/25 02:03:34;;;;;;;20.48;11.00;;;-0.40;99.90;;;;;;4919158;29;20487;-89
2021/01/25 02:06:03;;;;;;;29.25;12.38;;;-0.50;99.90;;;;;;4951284;29;20561;-92
2021/01/25 02:08:30;;;;;;;28.15;14.02;;;-0.50;99.90;;;;;;4935667;29;20381;-92
2021/01/25 02:10:56;;;;;;;28.80;12.05;;;-0.50;99.90;;;;;;4935815;29;20119;-93
2021/01/25 02:13:23;;;;;;;23.13;11.43;;;-0.30;99.90;;;;;;4951741;29;20091;-90
2021/01/25 02:15:50;;;;;;;24.35;12.70;;;-0.30;99.90;;;;;;4934661;29;20051;-92
2021/01/25 02:18:16;;;;;;;26.92;10.02;;;-0.30;99.90;;;;;;4918685;29;20386;-91
2021/01/25 02:20:44;;;;;;;27.25;10.93;;;-0.40;99.90;;;;;;4950603;29;20114;-90
2021/01/25 02:23:35;;;;;;;20.65;9.85;;;-0.40;99.90;;;;;;4950551;29;20048;-91
2021/01/25 02:26:06;;;;;;;;;;;-0.50;99.90;;;;;;4935062;29;20043;-91
2021/01/25 02:28:33;;;;;;;15.10;9.20;;;-0.40;99.90;;;;;;4935749;29;19922;-93
2021/01/25 02:31:01;;;;;;;19.48;10.63;;;-0.50;99.90;;;;;;4919518;29;20052;-92
2021/01/25 02:33:28;;;;;;;22.00;10.45;;;-0.50;99.90;;;;;;4907191;29;20047;-92
2021/01/25 02:35:55;;;;;;;17.25;9.88;;;-0.60;99.90;;;;;;4904086;29;20414;-94
2021/01/25 02:38:23;;;;;;;15.88;9.35;;;-0.60;99.90;;;;;;4935138;29;20122;-91
2021/01/25 02:40:52;;;;;;;18.35;10.27;;;-0.70;99.90;;;;;;4935403;29;20051;-93
2021/01/25 02:43:18;;;;;;;18.98;10.70;;;-0.70;99.90;;;;;;4935055;29;20454;-93
2021/01/25 02:45:44;;;;;;;20.17;11.48;;;-0.70;99.90;;;;;;4918585;29;20138;-95
2021/01/25 02:48:11;;;;;;;22.95;12.20;;;-0.60;99.90;;;;;;4941204;29;20055;-92
2021/01/25 02:50:37;;;;;;;23.45;10.48;;;-0.50;99.90;;;;;;4935148;29;20042;-94
2021/01/25 02:53:03;;;;;;;22.83;11.40;;;-0.70;99.90;;;;;;4934877;29;20040;-93
2021/01/25 02:55:31;;;;;;;27.45;12.55;;;0.10;99.90;;;;;;4935176;29;20112;-93
2021/01/25 02:57:58;;;;;;;30.23;13.13;;;-0.80;99.90;;;;;;4935075;29;20126;-95
2021/01/25 03:00:24;;;;;;;33.60;14.48;;;-0.40;99.90;;;;;;4919513;29;20122;-92
2021/01/25 03:02:52;;;;;;;43.47;15.40;;;-0.80;99.90;;;;;;4941509;29;20063;-96
2021/01/25 03:05:18;;;;;;;30.55;13.60;;;-0.70;99.90;;;;;;4936515;29;20042;-96
2021/01/25 03:07:44;;;;;;;28.13;14.85;;;-0.70;99.90;;;;;;4917849;29;20655;-91
2021/01/25 03:10:10;;;;;;;33.58;14.85;;;-0.70;99.90;;;;;;4918151;29;20043;-89
2021/01/25 03:12:37;;;;;;;27.02;15.00;;;-0.70;99.90;;;;;;4932549;29;20043;-90
2021/01/25 03:15:05;;;;;;;39.45;15.95;;;-0.20;99.90;;;;;;4934891;29;20537;-91
2021/01/25 03:17:31;;;;;;;43.22;17.08;;;-0.70;99.90;;;;;;4933605;29;20135;-92
2021/01/25 03:19:57;;;;;;;42.47;18.63;;;-0.70;99.90;;;;;;4934471;29;20494;-92
2021/01/25 03:22:23;;;;;;;37.13;18.60;;;-0.60;99.90;;;;;;4935092;29;20050;-92
2021/01/25 03:24:49;;;;;;;39.00;16.40;;;-0.50;99.90;;;;;;4933791;29;20047;-93
2021/01/25 03:27:14;;;;;;;29.60;14.95;;;-0.50;99.90;;;;;;4934572;29;20478;-92
2021/01/25 03:29:40;;;;;;;25.17;13.77;;;-0.50;99.90;;;;;;4933706;29;20047;-93
2021/01/25 03:32:06;;;;;;;25.83;13.40;;;-0.50;99.90;;;;;;4935497;29;20044;-93
2021/01/25 03:34:32;;;;;;;26.08;12.88;;;-0.50;99.90;;;;;;4918066;29;20047;-93
2021/01/25 03:36:58;;;;;;;32.58;13.95;;;-0.60;99.90;;;;;;4917423;29;20062;-93
2021/01/25 03:39:24;;;;;;;24.33;12.40;;;-0.60;99.90;;;;;;4933406;29;20051;-94
2021/01/25 03:41:50;;;;;;;23.73;12.90;;;-0.60;99.90;;;;;;4933426;29;20599;-95
2021/01/25 03:44:16;;;;;;;35.65;12.95;;;-0.60;99.90;;;;;;4935183;29;20039;-95
2021/01/25 03:46:46;;;;;;;25.88;12.50;;;-0.40;99.90;;;;;;4916976;29;20446;-95
2021/01/25 03:49:14;;;;;;;22.52;12.68;;;-0.60;99.90;;;;;;4925032;29;20103;-93
2021/01/25 03:51:40;;;;;;;27.83;13.57;;;-0.50;99.90;;;;;;4933253;29;20067;-94
2021/01/25 03:54:16;;;;;;;29.45;14.73;;;-0.70;99.90;;;;;;4934958;29;20075;-95
2021/01/25 03:56:44;;;;;;;30.52;14.10;;;-0.50;99.90;;;;;;4933967;29;20083;-95
2021/01/25 03:59:09;;;;;;;27.88;13.90;;;-0.40;99.90;;;;;;4934985;29;20074;-93
2021/01/25 04:01:35;;;;;;;29.83;13.80;;;-0.70;99.90;;;;;;4934503;29;20462;-95
2021/01/25 04:04:04;;;;;;;28.05;14.20;;;-0.70;99.90;;;;;;4923924;29;20058;-96
2021/01/25 04:09:14;;;;;;;29.65;15.02;;;-0.60;99.90;;;;;;4986563;23;20054;-92
2021/01/25 04:11:42;;;;;;;30.10;16.20;;;-0.60;99.90;;;;;;5658083;23;20149;-96
2021/01/25 04:14:09;;;;;;;31.67;16.23;;;-0.70;99.90;;;;;;4976741;28;20400;-95
2021/01/25 04:16:35;;;;;;;32.38;16.40;;;-0.60;99.90;;;;;;4956384;28;20051;-95
2021/01/25 04:19:08;;;;;;;32.67;16.70;;;-0.70;99.90;;;;;;4954080;28;20054;-94
2021/01/25 04:21:34;;;;;;;32.88;17.45;;;-0.80;99.90;;;;;;4970800;28;20097;-92
2021/01/25 04:24:07;;;;;;;33.38;16.80;;;-0.50;99.90;;;;;;4969335;28;20105;-96
2021/01/25 04:26:41;;;;;;;35.63;17.63;;;-0.80;99.90;;;;;;4954220;29;20055;-94
2021/01/25 04:29:14;;;;;;;40.95;20.23;;;-0.80;99.90;;;;;;4962984;29;20067;-94
2021/01/25 04:37:22;;;;;;;32.97;18.30;;;-0.90;99.90;;;;;;5498486;23;20041;-95
2021/01/25 04:42:29;;;;;;;33.17;19.33;;;-0.90;99.90;;;;;;5419306;23;20102;-93
2021/01/25 04:51:55;;;;;;;41.15;19.83;;;-1.10;99.90;;;;;;5332613;23;20053;-96
2021/01/25 04:54:22;;;;;;;37.88;20.27;;;-0.80;99.90;;;;;;4843831;29;20049;-94
2021/01/25 04:57:01;;;;;;;38.15;22.27;;;-1.20;99.90;;;;;;4962629;24;20069;-96
2021/01/25 04:59:31;;;;;;;39.42;21.92;;;-1.20;99.90;;;;;;5259768;23;20512;-94
2021/01/25 05:02:02;;;;;;;43.35;23.70;;;-1.20;99.90;;;;;;4876149;29;20053;-95
2021/01/25 05:07:31;;;;;;;46.30;22.38;;;-1.10;99.90;;;;;;5265578;23;20773;-93
2021/01/25 05:09:56;;;;;;;42.65;22.85;;;-1.10;99.90;;;;;;4824234;29;20079;-85
2021/01/25 05:12:22;;;;;;;46.00;22.40;;;-1.10;99.90;;;;;;4857633;29;20411;-94
2021/01/25 05:14:48;;;;;;;36.47;20.67;;;-1.10;99.90;;;;;;4846319;29;20105;-94
2021/01/25 05:17:15;;;;;;;37.20;21.75;;;-1.00;99.90;;;;;;4828546;29;20054;-94
2021/01/25 05:19:44;;;;;;;44.10;22.73;;;-1.00;99.90;;;;;;4861492;29;20500;-92
2021/01/25 05:22:19;;;;;;;41.65;21.85;;;-1.10;99.90;;;;;;4858753;29;20052;-94
2021/01/25 05:24:55;;;;;;;48.70;22.50;;;-1.10;99.90;;;;;;4857021;29;20468;-94
2021/01/25 05:27:31;;;;;;;44.72;22.75;;;-1.10;99.90;;;;;;4828558;29;20149;-95
2021/01/25 05:30:09;;;;;;;43.38;21.67;;;-1.10;99.90;;;;;;4868019;29;20045;-95
2021/01/25 05:32:45;;;;;;;40.85;22.60;;;-1.10;99.90;;;;;;4866525;29;20049;-93
2021/01/25 05:35:12;;;;;;;37.55;20.58;;;-1.10;99.90;;;;;;4852348;29;20090;-91
2021/01/25 05:37:41;;;;;;;49.47;22.48;;;-1.10;99.90;;;;;;4858369;29;20055;-90
2021/01/25 05:40:17;;;;;;;43.88;20.23;;;-0.90;99.90;;;;;;4865891;29;20053;-95
2021/01/25 05:42:55;;;;;;;42.10;21.80;;;-1.10;99.90;;;;;;4861936;29;20049;-96
2021/01/25 05:45:25;;;;;;;45.75;22.52;;;-1.10;99.90;;;;;;4847040;29;20491;-94
2021/01/25 05:47:57;;;;;;;48.55;24.55;;;-1.20;99.90;;;;;;4858957;29;20057;-96
2021/01/25 05:50:40;;;;;;;52.47;25.20;;;-1.20;99.90;;;;;;4828996;29;20468;-93
2021/01/25 05:53:08;;;;;;;40.05;21.63;;;-1.20;99.90;;;;;;4833138;29;20718;-96
2021/01/25 05:55:35;;;;;;;52.70;24.05;;;-1.20;99.90;;;;;;4864732;29;20049;-94
2021/01/25 05:58:02;;;;;;;49.53;24.17;;;-1.30;99.90;;;;;;4868568;29;20044;-95
2021/01/25 06:00:32;;;;;;;67.33;27.43;;;-1.10;99.90;;;;;;4855902;29;20041;-95
2021/01/25 06:02:59;;;;;;;46.45;23.40;;;-1.30;99.90;;;;;;4870420;29;20132;-89
2021/01/25 06:05:26;;;;;;;50.30;23.67;;;-1.20;99.90;;;;;;4847223;29;20052;-91
2021/01/25 06:07:52;;;;;;;52.90;24.30;;;-1.30;99.90;;;;;;4878733;29;20053;-90
2021/01/25 06:10:36;;;;;;;52.20;25.38;;;-1.30;99.90;;;;;;4862920;29;20047;-89
2021/01/25 06:13:08;;;;;;;53.75;23.65;;;-1.20;99.90;;;;;;4861309;29;20653;-91
2021/01/25 06:15:38;;;;;;;59.65;26.02;;;-1.30;99.90;;;;;;4848987;29;20169;-89
2021/01/25 06:18:04;;;;;;;71.18;28.38;;;-1.40;99.90;;;;;;4859349;29;20251;-89
2021/01/25 06:20:31;;;;;;;59.42;26.02;;;-1.30;99.90;;;;;;4858911;29;20046;-90
2021/01/25 06:22:57;;;;;;;69.10;28.75;;;-1.20;99.90;;;;;;4859159;29;20045;-89
2021/01/25 06:25:24;;;;;;;59.70;27.75;;;-1.30;99.90;;;;;;4835765;29;20045;-90
2021/01/25 06:27:54;;;;;;;78.50;30.65;;;-1.30;99.90;;;;;;4840399;29;20041;-91
2021/01/25 06:30:23;;;;;;;60.83;27.08;;;-1.20;99.90;;;;;;4854148;29;20053;-92
2021/01/25 06:32:50;;;;;;;66.85;27.52;;;-1.20;99.90;;;;;;4846243;29;20087;-92
2021/01/25 06:35:16;;;;;;;60.13;28.88;;;-1.20;99.90;;;;;;4828842;29;20053;-92
2021/01/25 06:37:42;;;;;;;54.47;26.90;;;-1.20;99.90;;;;;;4856743;29;20124;-89
2021/01/25 06:40:10;;;;;;;61.40;28.20;;;-1.10;99.90;;;;;;4859608;29;20049;-89
2021/01/25 06:42:40;;;;;;;74.88;31.20;;;-1.20;99.90;;;;;;4859464;29;20124;-89
2021/01/25 06:45:07;;;;;;;68.55;31.00;;;-1.20;99.90;;;;;;4844417;29;20061;-89
2021/01/25 06:47:36;;;;;;;76.53;33.70;;;-1.20;99.90;;;;;;4867479;29;20504;-91
2021/01/25 06:50:03;;;;;;;64.90;29.35;;;-1.10;99.90;;;;;;4855387;29;20054;-90
2021/01/25 06:52:36;;;;;;;70.43;31.85;;;-1.00;99.90;;;;;;4859242;29;20057;-89
2021/01/25 06:55:04;;;;;;;80.95;36.53;;;-1.00;99.90;;;;;;4855194;29;20136;-91
2021/01/25 06:57:36;;;;;;;76.40;36.90;;;-1.00;99.90;;;;;;4859480;29;20053;-90
2021/01/25 07:00:09;;;;;;;79.90;34.42;;;-0.90;99.90;;;;;;4860308;29;20140;-90
2021/01/25 07:02:53;;;;;;;78.78;33.08;;;-0.90;99.90;;;;;;4861636;29;20078;-88
2021/01/25 07:05:38;;;;;;;61.42;31.40;;;-0.90;99.90;;;;;;4859328;29;20045;-90
2021/01/25 07:08:26;;;;;;;61.95;30.83;;;-0.90;99.90;;;;;;4860787;29;20714;-90
2021/01/25 07:11:03;;;;;;;72.15;32.30;;;-0.90;99.90;;;;;;4842526;29;20061;-88
2021/01/25 07:13:34;;;;;;;72.80;30.83;;;-0.90;99.90;;;;;;4837422;29;20056;-89
2021/01/25 07:16:01;;;;;;;67.28;29.73;;;-0.90;99.90;;;;;;4860223;29;20414;-88
2021/01/25 07:18:28;;;;;;;76.70;31.27;;;-1.00;99.90;;;;;;4854339;29;20056;-93
2021/01/25 07:20:56;;;;;;;67.80;29.85;;;-1.00;99.90;;;;;;4846838;29;20058;-94
2021/01/25 07:23:24;;;;;;;69.85;29.48;;;-0.90;99.90;;;;;;4843952;29;20149;-93
2021/01/25 07:26:01;;;;;;;76.10;31.38;;;-0.90;99.90;;;;;;4856342;29;20177;-90
2021/01/25 07:28:30;;;;;;;62.20;29.55;;;-0.90;99.90;;;;;;4860668;29;20042;-92
2021/01/25 07:30:56;;;;;;;60.40;29.02;;;-0.90;99.90;;;;;;4853648;29;20423;-93
2021/01/25 07:33:23;;;;;;;42.63;20.33;;;-1.00;99.90;;;;;;4859691;29;20049;-95
2021/01/25 07:35:49;;;;;;;63.67;28.35;;;-0.90;99.90;;;;;;4858779;29;20073;-89
2021/01/25 07:38:16;;;;;;;65.28;29.92;;;-1.00;99.90;;;;;;4847203;29;20045;-92
2021/01/25 07:40:46;;;;;;;57.13;28.88;;;-0.80;99.90;;;;;;4861342;29;20045;-92
2021/01/25 07:43:15;;;;;;;63.30;28.10;;;-1.10;99.90;;;;;;4842285;29;20098;-92
2021/01/25 07:45:42;;;;;;;71.43;29.40;;;-1.10;99.90;;;;;;4852235;29;20052;-93
2021/01/25 07:48:12;;;;;;;70.13;30.73;;;-1.10;99.90;;;;;;4871206;29;20298;-90
2021/01/25 07:50:39;;;;;;;61.60;30.35;;;-1.00;99.90;;;;;;4850445;29;20049;-92
2021/01/25 07:53:07;;;;;;;61.97;29.30;;;-1.10;99.90;;;;;;4858862;29;20041;-91
2021/01/25 07:55:37;;;;;;;65.85;30.33;;;-1.10;99.90;;;;;;4857776;29;20041;-93
2021/01/25 07:58:11;;;;;;;58.83;28.05;;;-1.10;99.90;;;;;;4845573;29;20064;-90
2021/01/25 08:00:40;;;;;;;62.55;31.10;;;-1.10;99.90;;;;;;4856216;29;20085;-89
2021/01/25 08:03:27;;;;;;;62.45;28.85;;;-1.10;99.90;;;;;;4843468;29;20033;-91
2021/01/25 08:05:55;;;;;;;62.78;30.17;;;-1.00;99.90;;;;;;4866101;29;20606;-88
2021/01/25 08:08:23;;;;;;;81.93;31.20;;;-1.10;99.90;;;;;;4831600;29;20068;-88
2021/01/25 08:10:49;;;;;;;94.60;36.00;;;-1.10;99.90;;;;;;4840813;29;20420;-88
2021/01/25 08:13:15;;;;;;;82.43;33.88;;;-1.10;99.90;;;;;;4861811;29;20058;-88
2021/01/25 08:16:04;;;;;;;74.75;31.40;;;-1.10;99.90;;;;;;4844172;29;20049;-88
2021/01/25 08:18:53;;;;;;;61.20;28.20;;;-1.10;99.90;;;;;;4827055;29;20136;-89
2021/01/25 08:21:26;;;;;;;62.15;27.98;;;-1.10;99.90;;;;;;4835947;29;20143;-88
2021/01/25 08:23:55;;;;;;;53.58;25.30;;;-1.10;99.90;;;;;;4847034;29;20041;-87
2021/01/25 08:26:23;;;;;;;61.65;29.75;;;-1.10;99.90;;;;;;4859339;29;20045;-92
2021/01/25 08:28:56;;;;;;;61.08;27.75;;;-1.10;99.90;;;;;;4845683;29;20050;-89
2021/01/25 08:31:38;;;;;;;60.00;28.05;;;-1.10;99.90;;;;;;4851860;29;20045;-88
2021/01/25 08:34:26;;;;;;;66.65;29.25;;;-1.00;99.90;;;;;;4869545;29;20045;-89
2021/01/25 08:37:10;;;;;;;53.67;27.92;;;-1.00;99.90;;;;;;4847640;29;20080;-90
2021/01/25 08:39:42;;;;;;;62.60;30.50;;;-1.00;99.90;;;;;;4847581;29;20081;-91
2021/01/25 08:42:21;;;;;;;62.33;29.30;;;-1.00;99.90;;;;;;4847359;29;20491;-90
2021/01/25 08:44:53;;;;;;;71.55;31.38;;;-0.90;99.90;;;;;;4847079;29;20065;-91
2021/01/25 08:47:25;;;;;;;65.05;29.13;;;-1.00;99.90;;;;;;4846586;29;20056;-92
2021/01/25 08:49:52;;;;;;;65.07;28.88;;;-0.80;99.90;;;;;;4858354;29;20566;-92
2021/01/25 08:52:28;;;;;;;57.50;27.30;;;-0.90;99.90;;;;;;4860905;29;20049;-92
2021/01/25 08:55:13;;;;;;;59.92;29.00;;;-0.80;99.90;;;;;;4863533;29;20369;-89
2021/01/25 08:57:42;;;;;;;70.88;30.55;;;-0.80;99.90;;;;;;4849612;29;20373;-93
2021/01/25 09:00:15;;;;;;;74.72;29.83;;;-0.80;99.90;;;;;;4870117;29;20048;-93
2021/01/25 09:02:42;;;;;;;60.92;27.10;;;-0.70;99.90;;;;;;4858524;29;20054;-94
2021/01/25 09:05:09;;;;;;;67.75;30.73;;;-0.70;99.90;;;;;;4826809;29;20501;-93
2021/01/25 09:07:35;;;;;;;60.38;29.65;;;-0.70;99.90;;;;;;4829564;29;20045;-92
2021/01/25 09:10:01;;;;;;;52.13;26.75;;;-0.60;99.90;;;;;;4820468;29;20054;-92
2021/01/25 09:12:26;;;;;;;60.65;26.80;;;-0.60;99.90;;;;;;4859739;29;20038;-94
2021/01/25 09:14:52;;;;;;;62.05;29.58;;;-0.50;99.90;;;;;;4840389;29;20052;-94
2021/01/25 09:17:21;;;;;;;54.85;25.98;;;-0.40;99.90;;;;;;4843752;29;20200;-93
2021/01/25 09:19:47;;;;;;;63.55;28.65;;;-0.40;99.90;;;;;;4835174;29;20563;-84
2021/01/25 09:22:14;;;;;;;63.05;26.35;;;-0.40;99.90;;;;;;4838032;29;20084;-92
2021/01/25 09:24:40;;;;;;;51.42;25.67;;;-0.40;99.90;;;;;;4861835;29;20052;-90
2021/01/25 09:27:06;;;;;;;55.25;27.40;;;-0.30;99.90;;;;;;4858198;29;20045;-91
2021/01/25 09:29:32;;;;;;;58.22;29.33;;;-0.20;99.90;;;;;;4843305;29;20059;-92
2021/01/25 09:31:58;;;;;;;65.03;30.20;;;-0.20;99.90;;;;;;4856952;29;20140;-90
2021/01/25 09:34:24;;;;;;;62.15;27.88;;;0.30;99.90;;;;;;4832845;29;20041;-85
2021/01/25 09:36:51;;;;;;;58.17;28.15;;;-0.10;99.90;;;;;;4860926;29;20080;-86
2021/01/25 09:39:18;;;;;;;56.28;28.65;;;-0.10;99.90;;;;;;4866227;29;20072;-84
2021/01/25 09:41:47;;;;;;;62.83;27.00;;;0.00;99.90;;;;;;4847338;29;20054;-87
2021/01/25 09:44:18;;;;;;;49.87;26.40;;;0.00;99.90;;;;;;4848626;29;20044;-88
2021/01/25 09:46:44;;;;;;;54.33;26.75;;;0.00;99.90;;;;;;4849084;29;20046;-92
2021/01/25 09:49:12;;;;;;;60.33;28.55;;;0.00;99.90;;;;;;4859100;29;20049;-90
2021/01/25 09:51:40;;;;;;;53.33;25.50;;;0.20;99.90;;;;;;4859595;29;20114;-92
2021/01/25 09:54:06;;;;;;;52.65;24.77;;;0.20;99.90;;;;;;4851419;29;20048;-92
2021/01/25 09:56:31;;;;;;;58.15;27.63;;;0.20;99.90;;;;;;4869296;29;20125;-92
2021/01/25 09:58:57;;;;;;;53.65;24.55;;;0.30;99.90;;;;;;4845390;29;20061;-92
2021/01/25 10:01:24;;;;;;;55.28;26.45;;;0.30;99.90;;;;;;4829537;29;20087;-92
2021/01/25 10:03:50;;;;;;;51.00;24.10;;;0.40;99.90;;;;;;4872235;29;20057;-90
2021/01/25 10:06:16;;;;;;;47.03;24.30;;;0.40;99.90;;;;;;4833576;29;20128;-91
2021/01/25 10:08:43;;;;;;;51.00;25.25;;;0.50;99.90;;;;;;4859749;29;20159;-88
2021/01/25 10:11:09;;;;;;;50.28;26.55;;;0.60;99.90;;;;;;4841642;29;20128;-90
2021/01/25 10:13:35;;;;;;;51.20;24.75;;;0.50;99.90;;;;;;4844023;29;20145;-90
2021/01/25 10:16:01;;;;;;;63.60;29.70;;;0.60;99.90;;;;;;4857102;29;20129;-91
2021/01/25 10:18:27;;;;;;;45.58;24.02;;;0.60;99.90;;;;;;4818824;29;20069;-90
2021/01/25 10:20:52;;;;;;;56.17;28.98;;;0.60;99.90;;;;;;4847712;29;20132;-89
2021/01/25 10:23:18;;;;;;;51.10;26.88;;;0.60;99.90;;;;;;4842985;29;20038;-89
2021/01/25 10:25:44;;;;;;;43.83;26.05;;;0.80;99.90;;;;;;4837838;29;20461;-89
2021/01/25 10:28:10;;;;;;;42.83;22.52;;;0.70;99.90;;;;;;4861541;29;20412;-89
2021/01/25 10:30:36;;;;;;;51.22;27.75;;;0.70;99.90;;;;;;4832226;29;20041;-87
2021/01/25 10:33:03;;;;;;;47.30;24.27;;;0.80;99.90;;;;;;4849451;29;20049;-88
2021/01/25 10:35:29;;;;;;;39.83;21.23;;;0.80;99.90;;;;;;4858753;29;20069;-87
2021/01/25 10:37:55;;;;;;;43.00;22.60;;;0.80;99.90;;;;;;4838499;29;20262;-87
2021/01/25 10:40:21;;;;;;;48.53;23.63;;;0.90;99.90;;;;;;4861609;29;20048;-88
2021/01/25 10:42:47;;;;;;;44.75;22.77;;;0.90;99.90;;;;;;4863842;29;20051;-88
2021/01/25 10:45:14;;;;;;;49.97;24.42;;;0.90;99.90;;;;;;4845918;29;20123;-88
2021/01/25 10:47:40;;;;;;;43.47;22.25;;;0.90;99.90;;;;;;4858211;29;20123;-86
2021/01/25 10:50:11;;;;;;;45.30;22.85;;;0.90;99.90;;;;;;4848559;29;21698;-87
2021/01/25 10:52:37;;;;;;;45.45;22.52;;;0.90;99.90;;;;;;4853210;29;20547;-86
2021/01/25 10:55:03;;;;;;;39.40;22.00;;;0.90;99.90;;;;;;4841524;29;20550;-87
2021/01/25 10:57:33;;;;;;;40.80;20.67;;;1.00;99.90;;;;;;4845827;29;20455;-87
2021/01/25 11:00:00;;;;;;;43.58;23.20;;;1.00;99.90;;;;;;4858898;29;20053;-86
2021/01/25 11:02:26;;;;;;;35.42;20.13;;;1.10;99.90;;;;;;4848053;29;20387;-86
2021/01/25 11:04:52;;;;;;;40.58;22.45;;;1.10;99.90;;;;;;4857394;29;20041;-86
2021/01/25 11:07:18;;;;;;;43.08;22.10;;;1.20;99.90;;;;;;4852255;29;20065;-86
2021/01/25 11:09:43;;;;;;;38.42;20.67;;;1.20;99.90;;;;;;4831152;29;20063;-86
2021/01/25 11:12:09;;;;;;;35.67;18.42;;;1.20;99.90;;;;;;4824987;29;20109;-86
2021/01/25 11:14:35;;;;;;;31.63;17.10;;;1.30;99.90;;;;;;4859295;29;20037;-86
2021/01/25 11:17:01;;;;;;;31.00;18.10;;;1.30;99.90;;;;;;4850477;29;20137;-86
2021/01/25 11:19:27;;;;;;;33.35;17.15;;;1.40;99.90;;;;;;4839221;29;20132;-85
2021/01/25 11:21:53;;;;;;;29.67;16.77;;;1.40;99.90;;;;;;4839162;29;20045;-86
2021/01/25 11:24:18;;;;;;;35.25;17.85;;;1.40;99.90;;;;;;4867437;29;20049;-86
2021/01/25 11:26:44;;;;;;;32.55;17.17;;;1.50;99.90;;;;;;4861681;29;20492;-86
2021/01/25 11:29:10;;;;;;;31.42;17.38;;;1.50;99.90;;;;;;4840172;29;20109;-86
2021/01/25 11:31:36;;;;;;;28.38;16.50;;;1.60;99.90;;;;;;4847853;29;20049;-86
2021/01/25 11:34:02;;;;;;;28.88;16.02;;;1.50;99.90;;;;;;4868035;29;20060;-86
2021/01/25 11:36:28;;;;;;;29.40;15.73;;;1.60;99.90;;;;;;4849597;29;20105;-86
2021/01/25 11:38:54;;;;;;;31.30;14.82;;;1.60;99.90;;;;;;4866415;29;20054;-85
2021/01/25 11:41:20;;;;;;;26.40;15.07;;;1.70;99.90;;;;;;4858708;29;20049;-83
2021/01/25 11:43:46;;;;;;;28.83;14.40;;;1.70;99.90;;;;;;4858197;29;20045;-84
2021/01/25 11:46:12;;;;;;;21.90;13.90;;;1.80;99.90;;;;;;4858059;29;20412;-84
2021/01/25 11:48:38;;;;;;;24.65;14.55;;;1.80;99.90;;;;;;4840788;29;20136;-85
2021/01/25 11:51:04;;;;;;;24.58;13.68;;;1.80;99.90;;;;;;4857597;29;20537;-86
2021/01/25 11:53:31;;;;;;;25.27;13.52;;;1.90;99.90;;;;;;4856087;29;20043;-87
2021/01/25 11:55:58;;;;;;;22.60;12.90;;;2.00;99.90;;;;;;4840998;29;20484;-87
2021/01/25 11:58:23;;;;;;;17.58;11.75;;;2.00;99.90;;;;;;4860655;29;20049;-88
2021/01/25 12:00:49;;;;;;;19.23;12.65;;;2.00;99.90;;;;;;4841165;29;20397;-89
2021/01/25 12:03:15;;;;;;;23.13;12.70;;;2.10;99.90;;;;;;4824300;29;20051;-89
2021/01/25 12:05:41;;;;;;;19.08;11.20;;;2.10;99.90;;;;;;4860283;29;20068;-89
2021/01/25 12:08:07;;;;;;;18.33;11.55;;;2.20;99.90;;;;;;4862192;29;20381;-88
2021/01/25 12:10:34;;;;;;;21.63;11.55;;;2.20;99.90;;;;;;4867591;29;20116;-90
2021/01/25 12:13:00;;;;;;;24.48;12.65;;;2.20;99.90;;;;;;4847424;29;20061;-89
2021/01/25 12:15:26;;;;;;;21.67;12.95;;;2.30;99.90;;;;;;4847345;29;20053;-90
2021/01/25 12:17:51;;;;;;;22.52;12.43;;;2.40;99.90;;;;;;4840426;29;20054;-90
2021/01/25 12:20:17;;;;;;;21.55;11.00;;;2.30;99.90;;;;;;4847766;29;20404;-89
2021/01/25 12:22:43;;;;;;;19.23;11.52;;;2.40;99.90;;;;;;4838611;29;20436;-90
2021/01/25 12:25:09;;;;;;;24.10;12.07;;;2.40;99.90;;;;;;4859415;29;20072;-89
2021/01/25 12:27:35;;;;;;;22.10;13.07;;;2.40;99.90;;;;;;4857680;29;20452;-89
2021/01/25 12:30:01;;;;;;;26.50;13.27;;;2.40;99.90;;;;;;4847594;29;20080;-89
2021/01/25 12:32:27;;;;;;;25.67;13.77;;;2.50;99.90;;;;;;4845620;29;20064;-88
2021/01/25 12:34:53;;;;;;;30.90;14.05;;;2.50;99.90;;;;;;4842960;29;20049;-87
2021/01/25 12:37:20;;;;;;;28.58;15.38;;;2.50;99.90;;;;;;4843402;29;20049;-88
2021/01/25 12:39:45;;;;;;;22.60;14.15;;;2.50;99.90;;;;;;4852357;29;20330;-86
2021/01/25 12:42:11;;;;;;;32.03;15.85;;;2.50;99.90;;;;;;4855515;29;20484;-86
2021/01/25 12:44:37;;;;;;;28.05;15.95;;;2.60;99.90;;;;;;4833959;29;20624;-86
2021/01/25 12:47:03;;;;;;;31.67;16.67;;;2.60;99.90;;;;;;4851666;29;20050;-86
2021/01/25 12:49:29;;;;;;;28.65;15.93;;;2.70;99.90;;;;;;4849377;29;20048;-87
2021/01/25 12:51:55;;;;;;;26.75;15.68;;;2.70;99.90;;;;;;4838645;29;20056;-86
2021/01/25 12:54:21;;;;;;;25.77;14.63;;;2.80;99.90;;;;;;4860606;29;20128;-87
2021/01/25 12:56:48;;;;;;;29.63;15.13;;;2.90;99.90;;;;;;4826373;29;20109;-89